sensor_id;sensor_type;location;lat;lon;timestamp;pressure;altitude;pressure_sealevel;temperature;humidity
29121;BME280;16191;49.548;8.658;2022-09-03T00:04:58;99940.94;;;20.15;42.23
29121;BME280;16191;49.548;8.658;2022-09-03T00:07:35;99948.50;;;20.19;42.07
29121;BME280;16191;49.548;8.658;2022-09-03T00:10:10;99952.09;;;20.18;42.10
29121;BME280;16191;49.548;8.658;2022-09-03T00:13:03;99948.88;;;20.15;42.43
29121;BME280;16191;49.548;8.658;2022-09-03T00:15:51;99950.00;;;20.12;42.19
29121;BME280;16191;49.548;8.658;2022-09-03T00:18:46;99953.22;;;20.16;42.35
29121;BME280;16191;49.548;8.658;2022-09-03T00:21:41;99952.50;;;20.14;42.50
29121;BME280;16191;49.548;8.658;2022-09-03T00:24:34;99951.97;;;20.20;42.21
29121;BME280;16191;49.548;8.658;2022-09-03T00:27:24;99948.44;;;20.10;42.66
29121;BME280;16191;49.548;8.658;2022-09-03T00:30:00;99937.44;;;20.14;42.55
29121;BME280;16191;49.548;8.658;2022-09-03T00:32:38;99931.00;;;20.07;42.70
29121;BME280;16191;49.548;8.658;2022-09-03T00:35:10;99930.88;;;20.09;42.67
29121;BME280;16191;49.548;8.658;2022-09-03T00:37:39;99931.72;;;20.09;42.66
29121;BME280;16191;49.548;8.658;2022-09-03T00:40:18;99925.97;;;20.04;42.83
29121;BME280;16191;49.548;8.658;2022-09-03T00:43:02;99930.03;;;20.08;42.90
29121;BME280;16191;49.548;8.658;2022-09-03T00:45:46;99918.84;;;20.05;42.98
29121;BME280;16191;49.548;8.658;2022-09-03T00:48:26;99918.16;;;20.03;43.00
29121;BME280;16191;49.548;8.658;2022-09-03T00:51:04;99920.47;;;19.96;43.15
29121;BME280;16191;49.548;8.658;2022-09-03T00:56:38;99914.47;;;19.94;43.51
29121;BME280;16191;49.548;8.658;2022-09-03T01:02:16;99918.63;;;19.87;43.56
29121;BME280;16191;49.548;8.658;2022-09-03T01:10:29;99913.69;;;19.82;43.81
29121;BME280;16191;49.548;8.658;2022-09-03T01:13:12;99904.91;;;19.82;43.79
29121;BME280;16191;49.548;8.658;2022-09-03T01:15:51;99908.78;;;19.78;43.85
29121;BME280;16191;49.548;8.658;2022-09-03T01:27:20;99912.41;;;19.77;43.89
29121;BME280;16191;49.548;8.658;2022-09-03T01:30:02;99916.84;;;19.76;43.99
29121;BME280;16191;49.548;8.658;2022-09-03T01:32:42;99923.13;;;19.75;44.40
29121;BME280;16191;49.548;8.658;2022-09-03T01:35:17;99927.44;;;19.76;44.17
29121;BME280;16191;49.548;8.658;2022-09-03T01:38:31;99935.53;;;19.75;44.98
29121;BME280;16191;49.548;8.658;2022-09-03T01:50:03;99931.16;;;19.53;45.04
29121;BME280;16191;49.548;8.658;2022-09-03T01:52:47;99936.47;;;19.53;45.71
29121;BME280;16191;49.548;8.658;2022-09-03T01:55:42;99935.75;;;19.51;45.50
29121;BME280;16191;49.548;8.658;2022-09-03T01:58:25;99934.06;;;19.50;45.38
29121;BME280;16191;49.548;8.658;2022-09-03T02:00:58;99934.56;;;19.44;45.77
29121;BME280;16191;49.548;8.658;2022-09-03T02:03:34;99943.34;;;19.44;45.90
29121;BME280;16191;49.548;8.658;2022-09-03T02:06:07;99945.41;;;19.41;46.23
29121;BME280;16191;49.548;8.658;2022-09-03T02:08:35;99940.94;;;19.41;46.25
29121;BME280;16191;49.548;8.658;2022-09-03T02:11:05;99932.75;;;19.44;45.98
29121;BME280;16191;49.548;8.658;2022-09-03T02:13:37;99938.44;;;19.40;46.53
29121;BME280;16191;49.548;8.658;2022-09-03T02:16:16;99936.88;;;19.37;46.17
29121;BME280;16191;49.548;8.658;2022-09-03T02:18:49;99949.84;;;19.40;46.12
29121;BME280;16191;49.548;8.658;2022-09-03T02:21:19;99937.72;;;19.38;46.31
29121;BME280;16191;49.548;8.658;2022-09-03T02:23:47;99947.19;;;19.40;46.01
29121;BME280;16191;49.548;8.658;2022-09-03T02:26:18;99945.66;;;19.38;46.40
29121;BME280;16191;49.548;8.658;2022-09-03T02:28:47;99951.31;;;19.33;46.19
29121;BME280;16191;49.548;8.658;2022-09-03T02:31:15;99948.91;;;19.30;46.55
29121;BME280;16191;49.548;8.658;2022-09-03T02:33:44;99952.03;;;19.35;46.22
29121;BME280;16191;49.548;8.658;2022-09-03T02:36:14;99951.31;;;19.33;46.31
29121;BME280;16191;49.548;8.658;2022-09-03T02:38:43;99941.81;;;19.31;46.19
29121;BME280;16191;49.548;8.658;2022-09-03T02:41:11;99951.19;;;19.35;46.49
29121;BME280;16191;49.548;8.658;2022-09-03T02:43:53;99951.94;;;19.26;46.84
29121;BME280;16191;49.548;8.658;2022-09-03T02:46:31;99950.84;;;19.28;46.50
29121;BME280;16191;49.548;8.658;2022-09-03T02:48:59;99953.22;;;19.31;46.68
29121;BME280;16191;49.548;8.658;2022-09-03T02:51:26;99956.13;;;19.28;46.96
29121;BME280;16191;49.548;8.658;2022-09-03T02:53:52;99956.00;;;19.30;46.77
29121;BME280;16191;49.548;8.658;2022-09-03T02:56:19;99949.50;;;19.34;46.64
29121;BME280;16191;49.548;8.658;2022-09-03T02:58:46;99949.88;;;19.29;46.57
29121;BME280;16191;49.548;8.658;2022-09-03T03:01:13;99946.50;;;19.27;46.81
29121;BME280;16191;49.548;8.658;2022-09-03T03:03:49;99952.78;;;19.26;47.09
29121;BME280;16191;49.548;8.658;2022-09-03T03:06:16;99949.31;;;19.26;46.59
29121;BME280;16191;49.548;8.658;2022-09-03T03:08:47;99944.16;;;19.13;47.00
29121;BME280;16191;49.548;8.658;2022-09-03T03:11:16;99942.59;;;19.22;46.94
29121;BME280;16191;49.548;8.658;2022-09-03T03:13:45;99944.41;;;19.10;47.41
29121;BME280;16191;49.548;8.658;2022-09-03T03:16:13;99936.81;;;19.16;47.07
29121;BME280;16191;49.548;8.658;2022-09-03T03:18:40;99941.38;;;19.14;47.42
29121;BME280;16191;49.548;8.658;2022-09-03T03:21:10;99945.59;;;19.06;47.68
29121;BME280;16191;49.548;8.658;2022-09-03T03:23:38;99941.56;;;19.02;48.26
29121;BME280;16191;49.548;8.658;2022-09-03T03:26:08;99944.19;;;19.02;47.91
29121;BME280;16191;49.548;8.658;2022-09-03T03:28:35;99939.41;;;18.96;48.50
29121;BME280;16191;49.548;8.658;2022-09-03T03:33:34;99940.94;;;18.98;48.26
29121;BME280;16191;49.548;8.658;2022-09-03T03:36:06;99940.94;;;18.98;48.26
29121;BME280;16191;49.548;8.658;2022-09-03T03:38:35;99939.88;;;19.01;48.05
29121;BME280;16191;49.548;8.658;2022-09-03T03:41:11;99948.28;;;18.95;48.30
29121;BME280;16191;49.548;8.658;2022-09-03T03:43:38;99945.53;;;18.96;48.14
29121;BME280;16191;49.548;8.658;2022-09-03T03:46:06;99953.81;;;18.92;48.74
29121;BME280;16191;49.548;8.658;2022-09-03T03:48:33;99955.38;;;18.94;48.37
29121;BME280;16191;49.548;8.658;2022-09-03T03:51:01;99949.97;;;18.96;48.41
29121;BME280;16191;49.548;8.658;2022-09-03T03:53:30;99950.34;;;18.91;48.74
29121;BME280;16191;49.548;8.658;2022-09-03T03:55:58;99950.44;;;18.90;48.56
29121;BME280;16191;49.548;8.658;2022-09-03T03:58:25;99945.88;;;18.92;48.76
29121;BME280;16191;49.548;8.658;2022-09-03T04:00:52;99947.47;;;18.83;48.93
29121;BME280;16191;49.548;8.658;2022-09-03T04:03:19;99946.25;;;18.87;48.73
29121;BME280;16191;49.548;8.658;2022-09-03T04:05:56;99944.84;;;18.83;49.03
29121;BME280;16191;49.548;8.658;2022-09-03T04:08:25;99947.47;;;18.83;49.21
29121;BME280;16191;49.548;8.658;2022-09-03T04:10:52;99949.72;;;18.88;49.29
29121;BME280;16191;49.548;8.658;2022-09-03T04:13:19;99949.00;;;18.86;49.35
29121;BME280;16191;49.548;8.658;2022-09-03T04:15:45;99950.81;;;18.85;49.49
29121;BME280;16191;49.548;8.658;2022-09-03T04:18:12;99956.09;;;18.85;49.09
29121;BME280;16191;49.548;8.658;2022-09-03T04:20:39;99948.16;;;18.85;49.67
29121;BME280;16191;49.548;8.658;2022-09-03T04:23:06;99944.00;;;18.82;49.75
29121;BME280;16191;49.548;8.658;2022-09-03T04:25:33;99941.72;;;18.78;49.85
29121;BME280;16191;49.548;8.658;2022-09-03T04:27:59;99945.44;;;18.75;49.57
29121;BME280;16191;49.548;8.658;2022-09-03T04:30:29;99942.78;;;18.75;49.96
29121;BME280;16191;49.548;8.658;2022-09-03T04:32:55;99948.91;;;18.76;49.77
29121;BME280;16191;49.548;8.658;2022-09-03T04:35:23;99954.31;;;18.74;50.06
29121;BME280;16191;49.548;8.658;2022-09-03T04:37:51;99949.41;;;18.81;49.51
29121;BME280;16191;49.548;8.658;2022-09-03T04:40:18;99947.13;;;18.76;49.92
29121;BME280;16191;49.548;8.658;2022-09-03T04:42:45;99949.16;;;18.73;50.03
29121;BME280;16191;49.548;8.658;2022-09-03T04:45:12;99953.84;;;18.69;50.08
29121;BME280;16191;49.548;8.658;2022-09-03T04:47:55;99952.63;;;18.73;50.17
29121;BME280;16191;49.548;8.658;2022-09-03T04:50:22;99958.78;;;18.74;50.25
29121;BME280;16191;49.548;8.658;2022-09-03T04:53:02;99964.78;;;18.76;50.23
29121;BME280;16191;49.548;8.658;2022-09-03T04:55:34;99968.75;;;18.70;50.83
29121;BME280;16191;49.548;8.658;2022-09-03T04:58:01;99966.44;;;18.66;51.12
29121;BME280;16191;49.548;8.658;2022-09-03T05:00:28;99974.03;;;18.70;50.98
29121;BME280;16191;49.548;8.658;2022-09-03T05:02:54;99977.63;;;18.69;51.10
29121;BME280;16191;49.548;8.658;2022-09-03T05:05:21;99972.22;;;18.71;50.99
29121;BME280;16191;49.548;8.658;2022-09-03T05:07:48;99971.03;;;18.75;51.94
29121;BME280;16191;49.548;8.658;2022-09-03T05:10:14;99976.66;;;18.70;54.98
29121;BME280;16191;49.548;8.658;2022-09-03T05:12:47;99978.69;;;18.67;59.21
29121;BME280;16191;49.548;8.658;2022-09-03T05:15:15;99980.25;;;18.58;59.30
29121;BME280;16191;49.548;8.658;2022-09-03T05:17:42;99977.81;;;18.44;59.74
29121;BME280;16191;49.548;8.658;2022-09-03T05:20:09;99990.34;;;18.53;60.42
29121;BME280;16191;49.548;8.658;2022-09-03T05:22:36;99993.06;;;18.40;60.70
29121;BME280;16191;49.548;8.658;2022-09-03T05:25:03;99981.91;;;18.37;65.59
29121;BME280;16191;49.548;8.658;2022-09-03T05:27:30;99983.22;;;18.31;68.14
29121;BME280;16191;49.548;8.658;2022-09-03T05:29:57;99982.63;;;18.28;69.23
29121;BME280;16191;49.548;8.658;2022-09-03T05:32:23;99984.63;;;18.13;70.82
29121;BME280;16191;49.548;8.658;2022-09-03T05:34:50;99993.28;;;18.15;70.57
29121;BME280;16191;49.548;8.658;2022-09-03T05:37:17;99991.09;;;18.09;71.46
29121;BME280;16191;49.548;8.658;2022-09-03T05:39:44;99985.78;;;17.98;71.57
29121;BME280;16191;49.548;8.658;2022-09-03T05:42:10;99984.34;;;17.94;74.38
29121;BME280;16191;49.548;8.658;2022-09-03T05:44:39;99981.22;;;17.89;73.85
29121;BME280;16191;49.548;8.658;2022-09-03T05:47:06;99988.78;;;17.93;74.14
29121;BME280;16191;49.548;8.658;2022-09-03T05:49:33;99987.09;;;17.92;74.96
29121;BME280;16191;49.548;8.658;2022-09-03T05:52:00;99996.78;;;17.80;74.47
29121;BME280;16191;49.548;8.658;2022-09-03T05:54:27;99993.75;;;17.74;74.05
29121;BME280;16191;49.548;8.658;2022-09-03T05:56:54;99999.06;;;17.85;74.49
29121;BME280;16191;49.548;8.658;2022-09-03T05:59:20;100005.03;;;17.76;73.55
29121;BME280;16191;49.548;8.658;2022-09-03T06:01:47;100013.34;;;17.83;74.51
29121;BME280;16191;49.548;8.658;2022-09-03T06:04:18;100013.78;;;17.76;73.11
29121;BME280;16191;49.548;8.658;2022-09-03T06:06:46;100031.69;;;17.84;75.67
29121;BME280;16191;49.548;8.658;2022-09-03T06:09:19;100029.97;;;17.96;73.62
29121;BME280;16191;49.548;8.658;2022-09-03T06:11:48;100032.81;;;17.93;73.17
29121;BME280;16191;49.548;8.658;2022-09-03T06:14:17;100029.13;;;17.95;75.29
29121;BME280;16191;49.548;8.658;2022-09-03T06:16:46;100035.50;;;18.04;75.24
29121;BME280;16191;49.548;8.658;2022-09-03T06:19:18;100033.81;;;18.03;75.27
29121;BME280;16191;49.548;8.658;2022-09-03T06:21:45;100030.88;;;18.19;73.96
29121;BME280;16191;49.548;8.658;2022-09-03T06:24:15;100032.31;;;18.23;75.03
29121;BME280;16191;49.548;8.658;2022-09-03T06:26:42;100034.72;;;18.26;74.20
29121;BME280;16191;49.548;8.658;2022-09-03T06:29:10;100032.91;;;18.26;71.85
29121;BME280;16191;49.548;8.658;2022-09-03T06:31:37;100032.91;;;18.26;72.36
29121;BME280;16191;49.548;8.658;2022-09-03T06:34:04;100045.22;;;18.38;71.44
29121;BME280;16191;49.548;8.658;2022-09-03T06:36:31;100054.78;;;18.28;72.21
29121;BME280;16191;49.548;8.658;2022-09-03T06:38:58;100048.53;;;18.29;71.02
29121;BME280;16191;49.548;8.658;2022-09-03T06:41:28;100048.91;;;18.36;72.33
29121;BME280;16191;49.548;8.658;2022-09-03T06:44:00;100048.69;;;18.39;72.22
29121;BME280;16191;49.548;8.658;2022-09-03T06:46:31;100048.09;;;18.46;71.70
29121;BME280;16191;49.548;8.658;2022-09-03T06:48:58;100047.47;;;18.43;71.99
29121;BME280;16191;49.548;8.658;2022-09-03T06:51:26;100053.38;;;18.46;72.55
29121;BME280;16191;49.548;8.658;2022-09-03T06:54:01;100050.13;;;18.43;75.11
29121;BME280;16191;49.548;8.658;2022-09-03T06:56:28;100058.41;;;18.49;77.84
29121;BME280;16191;49.548;8.658;2022-09-03T06:58:56;100061.75;;;18.40;78.58
29121;BME280;16191;49.548;8.658;2022-09-03T07:01:28;100058.75;;;18.45;78.86
29121;BME280;16191;49.548;8.658;2022-09-03T07:03:58;100057.31;;;18.41;85.10
29121;BME280;16191;49.548;8.658;2022-09-03T07:06:37;100054.31;;;18.45;85.92
29121;BME280;16191;49.548;8.658;2022-09-03T07:09:05;100052.41;;;18.36;86.70
29121;BME280;16191;49.548;8.658;2022-09-03T07:11:47;100060.91;;;18.29;89.89
29121;BME280;16191;49.548;8.658;2022-09-03T07:14:18;100055.72;;;18.16;91.55
29121;BME280;16191;49.548;8.658;2022-09-03T07:16:47;100058.25;;;18.18;93.78
29121;BME280;16191;49.548;8.658;2022-09-03T07:19:14;100058.84;;;17.97;96.22
29121;BME280;16191;49.548;8.658;2022-09-03T07:21:42;100055.44;;;18.08;99.41
29121;BME280;16191;49.548;8.658;2022-09-03T07:24:15;100069.59;;;18.07;99.58
29121;BME280;16191;49.548;8.658;2022-09-03T07:26:42;100068.84;;;18.05;98.98
29121;BME280;16191;49.548;8.658;2022-09-03T07:29:14;100081.41;;;17.90;100.00
29121;BME280;16191;49.548;8.658;2022-09-03T07:31:46;100073.16;;;17.95;100.00
29121;BME280;16191;49.548;8.658;2022-09-03T07:34:13;100072.53;;;17.91;100.00
29121;BME280;16191;49.548;8.658;2022-09-03T07:36:46;100080.44;;;17.91;100.00
29121;BME280;16191;49.548;8.658;2022-09-03T07:39:14;100087.69;;;17.76;100.00
29121;BME280;16191;49.548;8.658;2022-09-03T07:41:42;100091.84;;;17.68;100.00
29121;BME280;16191;49.548;8.658;2022-09-03T07:44:12;100100.06;;;17.63;100.00
29121;BME280;16191;49.548;8.658;2022-09-03T07:46:41;100099.28;;;17.50;100.00
29121;BME280;16191;49.548;8.658;2022-09-03T07:49:09;100098.06;;;17.54;100.00
29121;BME280;16191;49.548;8.658;2022-09-03T07:51:37;100093.56;;;17.43;100.00
29121;BME280;16191;49.548;8.658;2022-09-03T07:54:07;100096.03;;;17.34;100.00
29121;BME280;16191;49.548;8.658;2022-09-03T07:56:36;100100.75;;;17.41;100.00
29121;BME280;16191;49.548;8.658;2022-09-03T07:59:04;100097.50;;;17.38;100.00
29121;BME280;16191;49.548;8.658;2022-09-03T08:01:32;100103.06;;;17.46;100.00
29121;BME280;16191;49.548;8.658;2022-09-03T08:04:00;100100.88;;;17.40;100.00
29121;BME280;16191;49.548;8.658;2022-09-03T08:06:28;100103.53;;;17.14;100.00
29121;BME280;16191;49.548;8.658;2022-09-03T08:08:56;100098.38;;;17.26;100.00
29121;BME280;16191;49.548;8.658;2022-09-03T08:11:32;100090.88;;;17.20;100.00
29121;BME280;16191;49.548;8.658;2022-09-03T08:14:05;100097.63;;;17.11;100.00
29121;BME280;16191;49.548;8.658;2022-09-03T08:16:35;100091.97;;;17.04;100.00
29121;BME280;16191;49.548;8.658;2022-09-03T08:19:03;100087.03;;;16.87;100.00
29121;BME280;16191;49.548;8.658;2022-09-03T08:21:30;100072.81;;;16.77;100.00
29121;BME280;16191;49.548;8.658;2022-09-03T08:23:58;100061.94;;;16.82;100.00
29121;BME280;16191;49.548;8.658;2022-09-03T08:26:35;100054.22;;;16.40;100.00
29121;BME280;16191;49.548;8.658;2022-09-03T08:29:02;100049.38;;;16.60;100.00
29121;BME280;16191;49.548;8.658;2022-09-03T08:31:30;100052.47;;;16.66;100.00
29121;BME280;16191;49.548;8.658;2022-09-03T08:33:59;100055.72;;;16.70;100.00
29121;BME280;16191;49.548;8.658;2022-09-03T08:36:30;100057.50;;;16.69;100.00
29121;BME280;16191;49.548;8.658;2022-09-03T08:38:58;100063.53;;;16.71;100.00
29121;BME280;16191;49.548;8.658;2022-09-03T08:42:11;100071.97;;;16.64;100.00
29121;BME280;16191;49.548;8.658;2022-09-03T08:44:49;100063.41;;;16.73;100.00
29121;BME280;16191;49.548;8.658;2022-09-03T08:50:12;100083.13;;;16.67;100.00
29121;BME280;16191;49.548;8.658;2022-09-03T08:52:52;100088.72;;;16.75;100.00
29121;BME280;16191;49.548;8.658;2022-09-03T08:55:35;100098.84;;;16.82;100.00
29121;BME280;16191;49.548;8.658;2022-09-03T08:58:20;100107.06;;;17.02;100.00
29121;BME280;16191;49.548;8.658;2022-09-03T09:00:53;100118.22;;;17.06;100.00
29121;BME280;16191;49.548;8.658;2022-09-03T09:14:38;100141.47;;;17.50;100.00
29121;BME280;16191;49.548;8.658;2022-09-03T09:20:22;100147.91;;;17.71;100.00
29121;BME280;16191;49.548;8.658;2022-09-03T09:23:00;100157.97;;;17.77;100.00
29121;BME280;16191;49.548;8.658;2022-09-03T09:25:28;100157.25;;;17.63;100.00
29121;BME280;16191;49.548;8.658;2022-09-03T09:28:03;100160.56;;;17.66;100.00
29121;BME280;16191;49.548;8.658;2022-09-03T09:30:35;100165.94;;;17.65;100.00
29121;BME280;16191;49.548;8.658;2022-09-03T09:33:03;100156.03;;;17.68;100.00
29121;BME280;16191;49.548;8.658;2022-09-03T09:35:29;100164.56;;;17.72;100.00
29121;BME280;16191;49.548;8.658;2022-09-03T09:37:57;100153.56;;;17.78;100.00
29121;BME280;16191;49.548;8.658;2022-09-03T09:40:44;100146.56;;;17.90;100.00
29121;BME280;16191;49.548;8.658;2022-09-03T09:43:16;100158.13;;;18.00;100.00
29121;BME280;16191;49.548;8.658;2022-09-03T09:45:48;100148.25;;;18.14;100.00
29121;BME280;16191;49.548;8.658;2022-09-03T09:48:51;100145.41;;;18.29;100.00
29121;BME280;16191;49.548;8.658;2022-09-03T09:51:20;100141.06;;;18.52;100.00
29121;BME280;16191;49.548;8.658;2022-09-03T09:53:47;100143.53;;;18.66;100.00
29121;BME280;16191;49.548;8.658;2022-09-03T09:56:22;100133.13;;;19.09;100.00
29121;BME280;16191;49.548;8.658;2022-09-03T09:59:01;100140.50;;;19.50;100.00
29121;BME280;16191;49.548;8.658;2022-09-03T10:01:28;100136.34;;;19.79;100.00
29121;BME280;16191;49.548;8.658;2022-09-03T10:04:09;100138.44;;;20.08;100.00
29121;BME280;16191;49.548;8.658;2022-09-03T10:06:36;100137.19;;;20.23;100.00
29121;BME280;16191;49.548;8.658;2022-09-03T10:09:28;100132.91;;;20.64;100.00
29121;BME280;16191;49.548;8.658;2022-09-03T10:14:39;100133.97;;;21.03;100.00
29121;BME280;16191;49.548;8.658;2022-09-03T10:17:25;100131.44;;;21.22;100.00
29121;BME280;16191;49.548;8.658;2022-09-03T10:20:18;100132.88;;;21.26;100.00
29121;BME280;16191;49.548;8.658;2022-09-03T10:23:17;100132.50;;;21.40;99.87
29121;BME280;16191;49.548;8.658;2022-09-03T10:28:25;100120.19;;;21.79;96.73
29121;BME280;16191;49.548;8.658;2022-09-03T10:31:08;100113.81;;;22.20;91.10
29121;BME280;16191;49.548;8.658;2022-09-03T10:33:51;100115.06;;;22.26;90.20
29121;BME280;16191;49.548;8.658;2022-09-03T10:36:24;100115.88;;;22.65;88.92
29121;BME280;16191;49.548;8.658;2022-09-03T10:39:01;100114.03;;;22.85;88.23
29121;BME280;16191;49.548;8.658;2022-09-03T10:47:05;100089.88;;;23.61;86.02
29121;BME280;16191;49.548;8.658;2022-09-03T10:52:26;100092.94;;;23.83;82.94
29121;BME280;16191;49.548;8.658;2022-09-03T10:57:40;100086.97;;;24.35;79.88
29121;BME280;16191;49.548;8.658;2022-09-03T11:00:10;100085.88;;;24.71;78.18
29121;BME280;16191;49.548;8.658;2022-09-03T11:05:34;100084.38;;;24.43;76.72
29121;BME280;16191;49.548;8.658;2022-09-03T11:10:47;100089.63;;;25.12;72.32
29121;BME280;16191;49.548;8.658;2022-09-03T11:13:37;100087.81;;;25.55;72.99
29121;BME280;16191;49.548;8.658;2022-09-03T11:16:16;100093.59;;;25.76;69.71
29121;BME280;16191;49.548;8.658;2022-09-03T11:18:59;100094.28;;;25.86;65.79
29121;BME280;16191;49.548;8.658;2022-09-03T11:21:30;100091.94;;;26.00;67.87
29121;BME280;16191;49.548;8.658;2022-09-03T11:26:35;100082.63;;;25.45;68.25
29121;BME280;16191;49.548;8.658;2022-09-03T11:31:51;100086.28;;;26.43;62.42
29121;BME280;16191;49.548;8.658;2022-09-03T11:37:17;100079.91;;;25.37;64.25
29121;BME280;16191;49.548;8.658;2022-09-03T11:39:56;100073.25;;;25.41;65.92
29121;BME280;16191;49.548;8.658;2022-09-03T11:42:38;100070.38;;;26.25;63.75
29121;BME280;16191;49.548;8.658;2022-09-03T11:45:32;100086.28;;;26.11;62.55
29121;BME280;16191;49.548;8.658;2022-09-03T11:48:00;100081.13;;;25.59;63.37
29121;BME280;16191;49.548;8.658;2022-09-03T11:50:27;100074.44;;;25.55;62.48
29121;BME280;16191;49.548;8.658;2022-09-03T12:00:50;100067.94;;;26.40;52.92
29121;BME280;16191;49.548;8.658;2022-09-03T12:03:24;100067.22;;;26.22;51.24
29121;BME280;16191;49.548;8.658;2022-09-03T12:12:00;100065.69;;;26.76;51.92
29121;BME280;16191;49.548;8.658;2022-09-03T12:20:14;100061.25;;;27.47;48.28
29121;BME280;16191;49.548;8.658;2022-09-03T12:22:41;100055.38;;;27.82;48.35
29121;BME280;16191;49.548;8.658;2022-09-03T12:25:10;100048.16;;;28.43;45.73
29121;BME280;16191;49.548;8.658;2022-09-03T12:27:39;100050.22;;;28.18;45.75
29121;BME280;16191;49.548;8.658;2022-09-03T12:30:15;100048.94;;;27.29;47.79
29121;BME280;16191;49.548;8.658;2022-09-03T12:32:42;100050.22;;;27.42;45.69
29121;BME280;16191;49.548;8.658;2022-09-03T12:35:16;100047.94;;;26.75;44.62
29121;BME280;16191;49.548;8.658;2022-09-03T12:38:04;100056.13;;;26.98;45.09
29121;BME280;16191;49.548;8.658;2022-09-03T12:40:34;100045.41;;;27.29;45.41
29121;BME280;16191;49.548;8.658;2022-09-03T12:43:26;100043.31;;;28.01;44.72
29121;BME280;16191;49.548;8.658;2022-09-03T12:46:14;100043.31;;;27.16;46.51
29121;BME280;16191;49.548;8.658;2022-09-03T12:49:00;100054.59;;;27.35;46.47
29121;BME280;16191;49.548;8.658;2022-09-03T12:52:06;100054.50;;;27.51;46.93
29121;BME280;16191;49.548;8.658;2022-09-03T12:54:39;100059.19;;;26.46;48.69
29121;BME280;16191;49.548;8.658;2022-09-03T12:57:14;100059.16;;;26.79;47.72
29121;BME280;16191;49.548;8.658;2022-09-03T12:59:46;100055.50;;;27.27;49.30
29121;BME280;16191;49.548;8.658;2022-09-03T13:02:21;100065.31;;;26.87;49.28
29121;BME280;16191;49.548;8.658;2022-09-03T13:04:49;100055.06;;;27.46;48.67
29121;BME280;16191;49.548;8.658;2022-09-03T13:07:31;100054.94;;;27.40;48.98
29121;BME280;16191;49.548;8.658;2022-09-03T13:10:04;100066.59;;;27.16;47.35
29121;BME280;16191;49.548;8.658;2022-09-03T13:12:42;100070.53;;;25.83;50.01
29121;BME280;16191;49.548;8.658;2022-09-03T13:15:17;100064.41;;;26.40;50.35
29121;BME280;16191;49.548;8.658;2022-09-03T13:18:09;100062.78;;;26.94;50.77
29121;BME280;16191;49.548;8.658;2022-09-03T13:21:07;100069.19;;;26.77;49.95
29121;BME280;16191;49.548;8.658;2022-09-03T13:26:48;100077.44;;;26.43;50.48
29121;BME280;16191;49.548;8.658;2022-09-03T13:29:32;100071.56;;;26.23;52.82
29121;BME280;16191;49.548;8.658;2022-09-03T13:32:12;100068.91;;;26.55;51.80
29121;BME280;16191;49.548;8.658;2022-09-03T13:34:49;100076.72;;;25.76;55.34
29121;BME280;16191;49.548;8.658;2022-09-03T13:40:31;100074.38;;;25.73;54.67
29121;BME280;16191;49.548;8.658;2022-09-03T13:43:04;100068.25;;;27.17;51.11
29121;BME280;16191;49.548;8.658;2022-09-03T13:45:44;100062.75;;;28.26;46.06
29121;BME280;16191;49.548;8.658;2022-09-03T13:48:23;100058.03;;;28.05;46.33
29121;BME280;16191;49.548;8.658;2022-09-03T13:51:19;100050.78;;;28.66;45.06
29121;BME280;16191;49.548;8.658;2022-09-03T13:54:02;100049.94;;;27.90;47.12
29121;BME280;16191;49.548;8.658;2022-09-03T13:56:53;100053.66;;;27.89;48.51
29121;BME280;16191;49.548;8.658;2022-09-03T13:59:47;100054.66;;;28.34;44.49
29121;BME280;16191;49.548;8.658;2022-09-03T14:07:43;100042.41;;;28.84;43.83
29121;BME280;16191;49.548;8.658;2022-09-03T14:12:45;100055.78;;;27.94;47.47
29121;BME280;16191;49.548;8.658;2022-09-03T14:15:25;100044.28;;;27.62;50.76
29121;BME280;16191;49.548;8.658;2022-09-03T14:18:09;100050.59;;;27.70;48.36
29121;BME280;16191;49.548;8.658;2022-09-03T14:20:57;100047.44;;;27.66;53.33
29121;BME280;16191;49.548;8.658;2022-09-03T14:23:39;100042.63;;;29.33;46.39
29121;BME280;16191;49.548;8.658;2022-09-03T14:26:18;100032.91;;;29.89;44.78
29121;BME280;16191;49.548;8.658;2022-09-03T14:29:14;100043.47;;;29.70;45.13
29121;BME280;16191;49.548;8.658;2022-09-03T14:32:06;100040.28;;;29.59;45.13
29121;BME280;16191;49.548;8.658;2022-09-03T14:40:28;100050.03;;;30.80;41.51
29121;BME280;16191;49.548;8.658;2022-09-03T14:48:53;100058.13;;;30.24;43.78
29121;BME280;16191;49.548;8.658;2022-09-03T14:51:56;100054.31;;;29.76;45.02
29121;BME280;16191;49.548;8.658;2022-09-03T14:55:03;100055.66;;;28.85;46.33
29121;BME280;16191;49.548;8.658;2022-09-03T14:57:58;100045.13;;;28.61;47.53
29121;BME280;16191;49.548;8.658;2022-09-03T15:03:12;100060.78;;;26.88;53.06
29121;BME280;16191;49.548;8.658;2022-09-03T15:10:47;100072.63;;;26.38;55.39
29121;BME280;16191;49.548;8.658;2022-09-03T15:13:25;100075.13;;;26.32;56.15
29121;BME280;16191;49.548;8.658;2022-09-03T15:16:04;100060.69;;;26.24;57.21
29121;BME280;16191;49.548;8.658;2022-09-03T15:24:50;100069.22;;;25.95;59.18
29121;BME280;16191;49.548;8.658;2022-09-03T15:30:05;100065.00;;;25.77;60.11
29121;BME280;16191;49.548;8.658;2022-09-03T15:35:05;100063.28;;;25.59;62.12
29121;BME280;16191;49.548;8.658;2022-09-03T15:37:38;100049.19;;;25.41;65.38
29121;BME280;16191;49.548;8.658;2022-09-03T15:40:27;100058.47;;;25.21;64.92
29121;BME280;16191;49.548;8.658;2022-09-03T15:43:20;100054.06;;;25.04;67.03
29121;BME280;16191;49.548;8.658;2022-09-03T15:45:51;100057.06;;;24.49;70.01
29121;BME280;16191;49.548;8.658;2022-09-03T15:48:35;100049.13;;;24.91;68.35
29121;BME280;16191;49.548;8.658;2022-09-03T15:51:12;100051.31;;;24.87;69.26
29121;BME280;16191;49.548;8.658;2022-09-03T15:53:53;100045.75;;;24.55;71.42
29121;BME280;16191;49.548;8.658;2022-09-03T15:57:08;100052.16;;;24.62;72.23